EGOP

Pembrey Sands Airport

Pembrey Sands, United Kingdom
METAR EGOP 180850Z 05007KT CAVOK 10/06 Q1028 BLU
Observed Flight Rules
Oct-18 @ 08:50 UTC (33 minutes ago) Visual Flight Rules
Wind Visibility Clouds
50° at 7 knots 10,000+ meters
  • Clear skies
Temperatures Readings
Current 10°C / 50°F
Dewpoint 6°C / 43°F
Humidity 76%
Altimeter 30.35" Hg
Pressure 1028 hPa
Elevation 6
METAR EGOP 180850Z 05007KT CAVOK 10/06 Q1028 BLU
Observed Flight Rules
Oct-18 @ 08:50 UTC
(33 minutes ago)
VFR
Wind Visibility
50° at 7 knots 10,000+ meters
Clouds
  • Clear skies
Temperature Dewpoint
10°C / 50°F 6°C / 43°F
Humidity Altimeter Pressure
76% 30.35" Hg 1028 hPa